sensor_id;sensor_type;location;lat;lon;timestamp;P1;durP1;ratioP1;P2;durP2;ratioP2
34405;SDS011;20658;45.630;8.886;2023-10-31T00:00:30;38.47;;;20.05;;
34405;SDS011;20658;45.630;8.886;2023-10-31T00:02:58;38.10;;;20.52;;
34405;SDS011;20658;45.630;8.886;2023-10-31T00:05:27;38.78;;;21.02;;
34405;SDS011;20658;45.630;8.886;2023-10-31T00:07:55;37.95;;;19.55;;
34405;SDS011;20658;45.630;8.886;2023-10-31T00:10:23;38.08;;;19.70;;
34405;SDS011;20658;45.630;8.886;2023-10-31T00:12:57;42.70;;;20.52;;
34405;SDS011;20658;45.630;8.886;2023-10-31T00:15:27;35.42;;;19.58;;
34405;SDS011;20658;45.630;8.886;2023-10-31T00:17:56;38.65;;;19.58;;
34405;SDS011;20658;45.630;8.886;2023-10-31T00:20:30;40.05;;;19.80;;
34405;SDS011;20658;45.630;8.886;2023-10-31T00:23:04;37.42;;;19.33;;
34405;SDS011;20658;45.630;8.886;2023-10-31T00:25:37;40.45;;;19.55;;
34405;SDS011;20658;45.630;8.886;2023-10-31T00:28:11;44.85;;;22.50;;
34405;SDS011;20658;45.630;8.886;2023-10-31T00:30:46;41.95;;;21.38;;
34405;SDS011;20658;45.630;8.886;2023-10-31T00:33:19;36.75;;;19.33;;
34405;SDS011;20658;45.630;8.886;2023-10-31T00:35:48;38.00;;;18.65;;
34405;SDS011;20658;45.630;8.886;2023-10-31T00:38:21;43.15;;;21.17;;
34405;SDS011;20658;45.630;8.886;2023-10-31T00:40:55;40.13;;;20.17;;
34405;SDS011;20658;45.630;8.886;2023-10-31T00:43:24;48.97;;;22.63;;
34405;SDS011;20658;45.630;8.886;2023-10-31T00:45:59;43.83;;;20.25;;
34405;SDS011;20658;45.630;8.886;2023-10-31T00:48:28;40.45;;;21.83;;
34405;SDS011;20658;45.630;8.886;2023-10-31T00:51:03;49.63;;;23.33;;
34405;SDS011;20658;45.630;8.886;2023-10-31T00:53:37;48.10;;;22.73;;
34405;SDS011;20658;45.630;8.886;2023-10-31T00:56:07;48.53;;;22.00;;
34405;SDS011;20658;45.630;8.886;2023-10-31T00:58:40;48.05;;;22.17;;
34405;SDS011;20658;45.630;8.886;2023-10-31T01:01:15;48.53;;;22.42;;
34405;SDS011;20658;45.630;8.886;2023-10-31T01:03:49;43.17;;;21.83;;
34405;SDS011;20658;45.630;8.886;2023-10-31T01:06:18;46.67;;;22.58;;
34405;SDS011;20658;45.630;8.886;2023-10-31T01:08:51;38.33;;;20.58;;
34405;SDS011;20658;45.630;8.886;2023-10-31T01:11:25;47.15;;;22.35;;
34405;SDS011;20658;45.630;8.886;2023-10-31T01:13:58;50.17;;;23.52;;
34405;SDS011;20658;45.630;8.886;2023-10-31T01:16:31;47.47;;;22.48;;
34405;SDS011;20658;45.630;8.886;2023-10-31T01:19:00;43.22;;;21.67;;
34405;SDS011;20658;45.630;8.886;2023-10-31T01:21:33;40.40;;;20.55;;
34405;SDS011;20658;45.630;8.886;2023-10-31T01:24:07;44.85;;;21.27;;
34405;SDS011;20658;45.630;8.886;2023-10-31T01:26:41;43.95;;;22.52;;
34405;SDS011;20658;45.630;8.886;2023-10-31T01:29:15;52.22;;;24.27;;
34405;SDS011;20658;45.630;8.886;2023-10-31T01:31:50;49.97;;;24.20;;
34405;SDS011;20658;45.630;8.886;2023-10-31T01:34:23;54.17;;;26.48;;
34405;SDS011;20658;45.630;8.886;2023-10-31T01:36:51;53.60;;;27.73;;
34405;SDS011;20658;45.630;8.886;2023-10-31T01:39:26;56.60;;;32.30;;
34405;SDS011;20658;45.630;8.886;2023-10-31T01:41:59;59.80;;;31.38;;
34405;SDS011;20658;45.630;8.886;2023-10-31T01:44:28;58.63;;;31.80;;
34405;SDS011;20658;45.630;8.886;2023-10-31T01:47:03;56.38;;;32.05;;
34405;SDS011;20658;45.630;8.886;2023-10-31T01:49:37;63.00;;;34.05;;
34405;SDS011;20658;45.630;8.886;2023-10-31T01:52:11;68.72;;;33.95;;
34405;SDS011;20658;45.630;8.886;2023-10-31T01:54:45;63.15;;;33.83;;
34405;SDS011;20658;45.630;8.886;2023-10-31T01:57:13;59.55;;;32.72;;
34405;SDS011;20658;45.630;8.886;2023-10-31T01:59:42;65.22;;;33.78;;
34405;SDS011;20658;45.630;8.886;2023-10-31T02:02:12;64.47;;;34.67;;
34405;SDS011;20658;45.630;8.886;2023-10-31T02:04:46;56.08;;;31.83;;
34405;SDS011;20658;45.630;8.886;2023-10-31T02:07:22;58.25;;;32.33;;
34405;SDS011;20658;45.630;8.886;2023-10-31T02:09:55;62.97;;;34.28;;
34405;SDS011;20658;45.630;8.886;2023-10-31T02:12:33;53.15;;;31.63;;
34405;SDS011;20658;45.630;8.886;2023-10-31T02:15:03;57.75;;;30.90;;
34405;SDS011;20658;45.630;8.886;2023-10-31T02:17:39;49.33;;;29.00;;
34405;SDS011;20658;45.630;8.886;2023-10-31T02:20:07;54.17;;;30.15;;
34405;SDS011;20658;45.630;8.886;2023-10-31T02:22:38;53.67;;;30.50;;
34405;SDS011;20658;45.630;8.886;2023-10-31T02:25:15;52.05;;;29.70;;
34405;SDS011;20658;45.630;8.886;2023-10-31T02:27:45;57.95;;;29.75;;
34405;SDS011;20658;45.630;8.886;2023-10-31T02:30:13;52.05;;;28.65;;
34405;SDS011;20658;45.630;8.886;2023-10-31T02:32:46;51.90;;;29.55;;
34405;SDS011;20658;45.630;8.886;2023-10-31T02:35:15;49.97;;;29.80;;
34405;SDS011;20658;45.630;8.886;2023-10-31T02:37:46;50.08;;;27.92;;
34405;SDS011;20658;45.630;8.886;2023-10-31T02:40:16;46.70;;;27.35;;
34405;SDS011;20658;45.630;8.886;2023-10-31T02:42:44;46.72;;;27.67;;
34405;SDS011;20658;45.630;8.886;2023-10-31T02:45:18;45.90;;;27.30;;
34405;SDS011;20658;45.630;8.886;2023-10-31T02:47:46;49.78;;;27.33;;
34405;SDS011;20658;45.630;8.886;2023-10-31T02:50:20;47.58;;;26.40;;
34405;SDS011;20658;45.630;8.886;2023-10-31T02:52:54;48.00;;;27.17;;
34405;SDS011;20658;45.630;8.886;2023-10-31T02:55:23;50.28;;;27.38;;
34405;SDS011;20658;45.630;8.886;2023-10-31T02:57:52;54.28;;;28.00;;
34405;SDS011;20658;45.630;8.886;2023-10-31T03:00:25;48.88;;;26.48;;
34405;SDS011;20658;45.630;8.886;2023-10-31T03:02:58;45.63;;;25.05;;
34405;SDS011;20658;45.630;8.886;2023-10-31T03:05:32;43.58;;;24.15;;
34405;SDS011;20658;45.630;8.886;2023-10-31T03:08:07;28.98;;;14.02;;
34405;SDS011;20658;45.630;8.886;2023-10-31T03:10:37;15.63;;;8.43;;
34405;SDS011;20658;45.630;8.886;2023-10-31T03:13:11;8.80;;;5.20;;
34405;SDS011;20658;45.630;8.886;2023-10-31T03:15:45;6.25;;;2.15;;
34405;SDS011;20658;45.630;8.886;2023-10-31T03:18:14;2.38;;;1.40;;
34405;SDS011;20658;45.630;8.886;2023-10-31T03:20:43;3.05;;;0.95;;
34405;SDS011;20658;45.630;8.886;2023-10-31T03:23:15;0.80;;;0.50;;
34405;SDS011;20658;45.630;8.886;2023-10-31T03:25:49;1.13;;;0.13;;
34405;SDS011;20658;45.630;8.886;2023-10-31T03:28:18;0.30;;;0.20;;
34405;SDS011;20658;45.630;8.886;2023-10-31T03:30:54;0.32;;;0.15;;
34405;SDS011;20658;45.630;8.886;2023-10-31T03:33:23;5.13;;;0.17;;
34405;SDS011;20658;45.630;8.886;2023-10-31T03:35:57;1.27;;;0.10;;
34405;SDS011;20658;45.630;8.886;2023-10-31T03:38:27;1.40;;;0.40;;
34405;SDS011;20658;45.630;8.886;2023-10-31T03:40:55;1.33;;;0.00;;
34405;SDS011;20658;45.630;8.886;2023-10-31T03:43:24;2.25;;;0.77;;
34405;SDS011;20658;45.630;8.886;2023-10-31T03:45:52;2.72;;;1.20;;
34405;SDS011;20658;45.630;8.886;2023-10-31T03:48:22;14.60;;;2.17;;
34405;SDS011;20658;45.630;8.886;2023-10-31T03:50:51;11.07;;;4.00;;
34405;SDS011;20658;45.630;8.886;2023-10-31T03:53:19;10.57;;;3.15;;
34405;SDS011;20658;45.630;8.886;2023-10-31T03:55:50;7.03;;;2.38;;
34405;SDS011;20658;45.630;8.886;2023-10-31T03:58:23;4.40;;;1.20;;
34405;SDS011;20658;45.630;8.886;2023-10-31T04:00:57;7.00;;;1.63;;
34405;SDS011;20658;45.630;8.886;2023-10-31T04:03:26;3.70;;;1.40;;
34405;SDS011;20658;45.630;8.886;2023-10-31T04:05:54;3.13;;;1.30;;
34405;SDS011;20658;45.630;8.886;2023-10-31T04:08:23;1.70;;;0.88;;
34405;SDS011;20658;45.630;8.886;2023-10-31T04:10:53;7.93;;;2.72;;
34405;SDS011;20658;45.630;8.886;2023-10-31T04:13:21;7.30;;;3.47;;
34405;SDS011;20658;45.630;8.886;2023-10-31T04:15:50;6.22;;;2.58;;
34405;SDS011;20658;45.630;8.886;2023-10-31T04:18:18;7.50;;;2.05;;
34405;SDS011;20658;45.630;8.886;2023-10-31T04:20:47;6.28;;;2.10;;
34405;SDS011;20658;45.630;8.886;2023-10-31T04:23:15;6.28;;;0.95;;
34405;SDS011;20658;45.630;8.886;2023-10-31T04:25:49;2.15;;;0.88;;
34405;SDS011;20658;45.630;8.886;2023-10-31T04:30:49;2.15;;;0.95;;
34405;SDS011;20658;45.630;8.886;2023-10-31T04:33:17;1.98;;;0.30;;
34405;SDS011;20658;45.630;8.886;2023-10-31T04:35:46;1.45;;;0.20;;
34405;SDS011;20658;45.630;8.886;2023-10-31T04:38:15;1.70;;;0.10;;
34405;SDS011;20658;45.630;8.886;2023-10-31T04:40:43;2.72;;;0.10;;
34405;SDS011;20658;45.630;8.886;2023-10-31T04:43:13;0.00;;;0.00;;
34405;SDS011;20658;45.630;8.886;2023-10-31T04:45:42;3.03;;;0.25;;
34405;SDS011;20658;45.630;8.886;2023-10-31T04:48:10;2.63;;;0.20;;
34405;SDS011;20658;45.630;8.886;2023-10-31T04:50:39;0.77;;;0.20;;
34405;SDS011;20658;45.630;8.886;2023-10-31T04:53:07;1.00;;;0.38;;
34405;SDS011;20658;45.630;8.886;2023-10-31T04:55:41;3.35;;;1.20;;
34405;SDS011;20658;45.630;8.886;2023-10-31T04:58:16;4.45;;;1.70;;
34405;SDS011;20658;45.630;8.886;2023-10-31T05:00:44;2.92;;;0.90;;
34405;SDS011;20658;45.630;8.886;2023-10-31T05:03:14;0.90;;;0.28;;
34405;SDS011;20658;45.630;8.886;2023-10-31T05:05:42;3.35;;;0.10;;
34405;SDS011;20658;45.630;8.886;2023-10-31T05:08:11;0.80;;;0.10;;
34405;SDS011;20658;45.630;8.886;2023-10-31T05:10:39;1.25;;;0.40;;
34405;SDS011;20658;45.630;8.886;2023-10-31T05:13:08;2.50;;;0.35;;
34405;SDS011;20658;45.630;8.886;2023-10-31T05:15:43;0.90;;;0.15;;
34405;SDS011;20658;45.630;8.886;2023-10-31T05:18:11;1.90;;;0.10;;
34405;SDS011;20658;45.630;8.886;2023-10-31T05:20:40;0.00;;;0.00;;
34405;SDS011;20658;45.630;8.886;2023-10-31T05:23:09;1.65;;;0.10;;
34405;SDS011;20658;45.630;8.886;2023-10-31T05:25:38;2.05;;;0.73;;
34405;SDS011;20658;45.630;8.886;2023-10-31T05:28:06;2.20;;;0.10;;
34405;SDS011;20658;45.630;8.886;2023-10-31T05:30:35;0.65;;;0.10;;
34405;SDS011;20658;45.630;8.886;2023-10-31T05:33:05;1.17;;;0.20;;
34405;SDS011;20658;45.630;8.886;2023-10-31T05:35:34;1.02;;;0.43;;
34405;SDS011;20658;45.630;8.886;2023-10-31T05:38:02;0.32;;;0.08;;
34405;SDS011;20658;45.630;8.886;2023-10-31T05:40:31;0.70;;;0.20;;
34405;SDS011;20658;45.630;8.886;2023-10-31T05:43:01;1.25;;;0.05;;
34405;SDS011;20658;45.630;8.886;2023-10-31T05:45:30;0.38;;;0.13;;
34405;SDS011;20658;45.630;8.886;2023-10-31T05:48:00;0.47;;;0.13;;
34405;SDS011;20658;45.630;8.886;2023-10-31T05:50:31;1.30;;;0.43;;
34405;SDS011;20658;45.630;8.886;2023-10-31T05:53:00;1.65;;;0.40;;
34405;SDS011;20658;45.630;8.886;2023-10-31T05:55:28;3.55;;;0.50;;
34405;SDS011;20658;45.630;8.886;2023-10-31T05:57:57;1.90;;;0.22;;
34405;SDS011;20658;45.630;8.886;2023-10-31T06:00:25;0.50;;;0.17;;
34405;SDS011;20658;45.630;8.886;2023-10-31T06:02:54;2.45;;;0.30;;
34405;SDS011;20658;45.630;8.886;2023-10-31T06:05:23;0.35;;;0.15;;
34405;SDS011;20658;45.630;8.886;2023-10-31T06:07:53;1.85;;;0.32;;
34405;SDS011;20658;45.630;8.886;2023-10-31T06:10:22;0.20;;;0.15;;
34405;SDS011;20658;45.630;8.886;2023-10-31T06:12:51;0.60;;;0.20;;
34405;SDS011;20658;45.630;8.886;2023-10-31T06:15:19;3.33;;;0.50;;
34405;SDS011;20658;45.630;8.886;2023-10-31T06:17:48;1.80;;;0.25;;
34405;SDS011;20658;45.630;8.886;2023-10-31T06:20:16;3.60;;;0.35;;
34405;SDS011;20658;45.630;8.886;2023-10-31T06:22:45;1.40;;;0.45;;
34405;SDS011;20658;45.630;8.886;2023-10-31T06:25:15;1.65;;;0.43;;
34405;SDS011;20658;45.630;8.886;2023-10-31T06:27:44;2.97;;;0.68;;
34405;SDS011;20658;45.630;8.886;2023-10-31T06:30:12;2.60;;;0.32;;
34405;SDS011;20658;45.630;8.886;2023-10-31T06:32:41;1.55;;;0.20;;
34405;SDS011;20658;45.630;8.886;2023-10-31T06:35:10;3.22;;;0.40;;
34405;SDS011;20658;45.630;8.886;2023-10-31T06:37:39;0.98;;;0.50;;
34405;SDS011;20658;45.630;8.886;2023-10-31T06:40:07;3.38;;;0.63;;
34405;SDS011;20658;45.630;8.886;2023-10-31T06:42:38;3.00;;;0.38;;
34405;SDS011;20658;45.630;8.886;2023-10-31T06:45:07;1.98;;;0.55;;
34405;SDS011;20658;45.630;8.886;2023-10-31T06:47:36;1.48;;;0.45;;
34405;SDS011;20658;45.630;8.886;2023-10-31T06:50:07;2.53;;;0.90;;
34405;SDS011;20658;45.630;8.886;2023-10-31T06:52:37;0.30;;;0.22;;
34405;SDS011;20658;45.630;8.886;2023-10-31T06:55:05;0.55;;;0.20;;
34405;SDS011;20658;45.630;8.886;2023-10-31T06:57:35;1.27;;;0.50;;
34405;SDS011;20658;45.630;8.886;2023-10-31T07:00:06;1.77;;;0.40;;
34405;SDS011;20658;45.630;8.886;2023-10-31T07:05:04;1.08;;;0.20;;
34405;SDS011;20658;45.630;8.886;2023-10-31T07:07:34;0.47;;;0.17;;
34405;SDS011;20658;45.630;8.886;2023-10-31T07:10:02;1.42;;;0.13;;
34405;SDS011;20658;45.630;8.886;2023-10-31T07:12:32;4.30;;;0.35;;
34405;SDS011;20658;45.630;8.886;2023-10-31T07:15:01;1.30;;;0.57;;
34405;SDS011;20658;45.630;8.886;2023-10-31T07:17:31;3.03;;;0.40;;
34405;SDS011;20658;45.630;8.886;2023-10-31T07:20:00;0.95;;;0.20;;
34405;SDS011;20658;45.630;8.886;2023-10-31T07:22:28;0.50;;;0.30;;
34405;SDS011;20658;45.630;8.886;2023-10-31T07:24:57;2.50;;;0.47;;
34405;SDS011;20658;45.630;8.886;2023-10-31T07:27:29;0.77;;;0.15;;
34405;SDS011;20658;45.630;8.886;2023-10-31T07:29:58;2.72;;;0.43;;
34405;SDS011;20658;45.630;8.886;2023-10-31T07:32:26;1.55;;;0.50;;
34405;SDS011;20658;45.630;8.886;2023-10-31T07:34:56;0.93;;;0.13;;
34405;SDS011;20658;45.630;8.886;2023-10-31T07:37:25;0.73;;;0.30;;
34405;SDS011;20658;45.630;8.886;2023-10-31T07:39:54;1.38;;;0.43;;
34405;SDS011;20658;45.630;8.886;2023-10-31T07:42:22;1.88;;;0.32;;
34405;SDS011;20658;45.630;8.886;2023-10-31T07:44:51;1.70;;;0.30;;
34405;SDS011;20658;45.630;8.886;2023-10-31T07:47:20;0.80;;;0.30;;
34405;SDS011;20658;45.630;8.886;2023-10-31T07:49:48;1.95;;;0.43;;
34405;SDS011;20658;45.630;8.886;2023-10-31T07:52:18;1.95;;;0.50;;
34405;SDS011;20658;45.630;8.886;2023-10-31T07:54:47;1.02;;;0.38;;
34405;SDS011;20658;45.630;8.886;2023-10-31T07:57:16;0.90;;;0.30;;
34405;SDS011;20658;45.630;8.886;2023-10-31T07:59:44;1.35;;;0.40;;
34405;SDS011;20658;45.630;8.886;2023-10-31T08:02:13;1.10;;;0.40;;
34405;SDS011;20658;45.630;8.886;2023-10-31T08:04:41;1.10;;;0.30;;
34405;SDS011;20658;45.630;8.886;2023-10-31T08:07:10;2.63;;;0.40;;
34405;SDS011;20658;45.630;8.886;2023-10-31T08:09:40;6.72;;;1.15;;
34405;SDS011;20658;45.630;8.886;2023-10-31T08:12:08;5.85;;;1.10;;
34405;SDS011;20658;45.630;8.886;2023-10-31T08:14:37;2.67;;;0.80;;
34405;SDS011;20658;45.630;8.886;2023-10-31T08:17:06;3.40;;;1.35;;
34405;SDS011;20658;45.630;8.886;2023-10-31T08:19:35;2.25;;;0.70;;
34405;SDS011;20658;45.630;8.886;2023-10-31T08:22:04;1.05;;;0.52;;
34405;SDS011;20658;45.630;8.886;2023-10-31T08:24:33;1.75;;;0.50;;
34405;SDS011;20658;45.630;8.886;2023-10-31T08:27:05;3.10;;;0.63;;
34405;SDS011;20658;45.630;8.886;2023-10-31T08:29:33;3.08;;;0.50;;
34405;SDS011;20658;45.630;8.886;2023-10-31T08:32:02;3.38;;;0.60;;
34405;SDS011;20658;45.630;8.886;2023-10-31T08:34:33;2.25;;;0.57;;
34405;SDS011;20658;45.630;8.886;2023-10-31T08:37:01;1.20;;;0.50;;
34405;SDS011;20658;45.630;8.886;2023-10-31T08:39:30;11.70;;;1.10;;
34405;SDS011;20658;45.630;8.886;2023-10-31T08:41:59;1.38;;;0.63;;
34405;SDS011;20658;45.630;8.886;2023-10-31T08:44:29;2.08;;;0.80;;
34405;SDS011;20658;45.630;8.886;2023-10-31T08:46:59;1.15;;;0.40;;
34405;SDS011;20658;45.630;8.886;2023-10-31T08:49:28;2.55;;;0.40;;
34405;SDS011;20658;45.630;8.886;2023-10-31T08:51:57;1.38;;;0.45;;
34405;SDS011;20658;45.630;8.886;2023-10-31T08:54:28;5.53;;;1.15;;
34405;SDS011;20658;45.630;8.886;2023-10-31T08:56:57;4.28;;;0.88;;
34405;SDS011;20658;45.630;8.886;2023-10-31T08:59:25;2.95;;;1.05;;
34405;SDS011;20658;45.630;8.886;2023-10-31T09:01:55;1.13;;;0.60;;
34405;SDS011;20658;45.630;8.886;2023-10-31T09:04:24;1.75;;;0.55;;
34405;SDS011;20658;45.630;8.886;2023-10-31T09:06:54;2.35;;;0.65;;
34405;SDS011;20658;45.630;8.886;2023-10-31T09:09:27;1.65;;;0.68;;
34405;SDS011;20658;45.630;8.886;2023-10-31T09:11:55;2.90;;;1.05;;
34405;SDS011;20658;45.630;8.886;2023-10-31T09:14:24;2.03;;;0.80;;
34405;SDS011;20658;45.630;8.886;2023-10-31T09:16:53;3.00;;;1.02;;
34405;SDS011;20658;45.630;8.886;2023-10-31T09:19:26;2.00;;;0.90;;
34405;SDS011;20658;45.630;8.886;2023-10-31T09:21:54;2.88;;;1.15;;
34405;SDS011;20658;45.630;8.886;2023-10-31T09:24:23;3.47;;;1.00;;
34405;SDS011;20658;45.630;8.886;2023-10-31T09:26:52;5.63;;;1.17;;
34405;SDS011;20658;45.630;8.886;2023-10-31T09:29:20;3.83;;;1.13;;
34405;SDS011;20658;45.630;8.886;2023-10-31T09:31:49;3.88;;;1.02;;
34405;SDS011;20658;45.630;8.886;2023-10-31T09:34:17;2.50;;;0.90;;
34405;SDS011;20658;45.630;8.886;2023-10-31T09:36:47;3.78;;;1.27;;
34405;SDS011;20658;45.630;8.886;2023-10-31T09:39:16;10.52;;;4.85;;
34405;SDS011;20658;45.630;8.886;2023-10-31T09:41:45;4.72;;;1.92;;
34405;SDS011;20658;45.630;8.886;2023-10-31T09:44:15;17.30;;;6.78;;
34405;SDS011;20658;45.630;8.886;2023-10-31T09:46:44;8.48;;;3.40;;
34405;SDS011;20658;45.630;8.886;2023-10-31T09:49:13;4.22;;;2.17;;
34405;SDS011;20658;45.630;8.886;2023-10-31T09:51:43;3.53;;;1.73;;
34405;SDS011;20658;45.630;8.886;2023-10-31T09:54:13;1.17;;;0.85;;
34405;SDS011;20658;45.630;8.886;2023-10-31T09:56:44;3.10;;;1.17;;
34405;SDS011;20658;45.630;8.886;2023-10-31T09:59:14;1.63;;;0.77;;
34405;SDS011;20658;45.630;8.886;2023-10-31T10:01:43;1.77;;;0.80;;
34405;SDS011;20658;45.630;8.886;2023-10-31T10:04:12;3.25;;;0.80;;
34405;SDS011;20658;45.630;8.886;2023-10-31T10:06:49;3.28;;;0.95;;
34405;SDS011;20658;45.630;8.886;2023-10-31T10:09:28;7.18;;;2.53;;
34405;SDS011;20658;45.630;8.886;2023-10-31T10:12:07;5.75;;;2.33;;
34405;SDS011;20658;45.630;8.886;2023-10-31T10:14:36;2.95;;;1.70;;
34405;SDS011;20658;45.630;8.886;2023-10-31T10:17:13;6.63;;;1.08;;
34405;SDS011;20658;45.630;8.886;2023-10-31T10:19:43;5.68;;;1.10;;
34405;SDS011;20658;45.630;8.886;2023-10-31T10:22:12;3.15;;;0.90;;
34405;SDS011;20658;45.630;8.886;2023-10-31T10:24:57;3.03;;;0.93;;
34405;SDS011;20658;45.630;8.886;2023-10-31T10:27:26;2.13;;;0.55;;
34405;SDS011;20658;45.630;8.886;2023-10-31T10:29:54;3.72;;;1.10;;
34405;SDS011;20658;45.630;8.886;2023-10-31T10:32:23;3.03;;;0.70;;
34405;SDS011;20658;45.630;8.886;2023-10-31T10:34:54;4.82;;;0.65;;
34405;SDS011;20658;45.630;8.886;2023-10-31T10:37:23;1.98;;;0.73;;
34405;SDS011;20658;45.630;8.886;2023-10-31T10:39:54;4.40;;;0.80;;
34405;SDS011;20658;45.630;8.886;2023-10-31T10:45:01;3.65;;;1.05;;
34405;SDS011;20658;45.630;8.886;2023-10-31T10:47:32;3.53;;;0.82;;
34405;SDS011;20658;45.630;8.886;2023-10-31T10:50:04;3.25;;;1.17;;
34405;SDS011;20658;45.630;8.886;2023-10-31T10:52:38;1.27;;;0.73;;
34405;SDS011;20658;45.630;8.886;2023-10-31T10:55:11;0.63;;;0.40;;
34405;SDS011;20658;45.630;8.886;2023-10-31T10:57:47;1.20;;;0.50;;
34405;SDS011;20658;45.630;8.886;2023-10-31T11:00:22;1.33;;;0.40;;
34405;SDS011;20658;45.630;8.886;2023-10-31T11:02:52;0.85;;;0.30;;
34405;SDS011;20658;45.630;8.886;2023-10-31T11:05:21;1.70;;;0.45;;
34405;SDS011;20658;45.630;8.886;2023-10-31T11:07:51;1.10;;;0.50;;
34405;SDS011;20658;45.630;8.886;2023-10-31T11:10:21;2.22;;;1.25;;
34405;SDS011;20658;45.630;8.886;2023-10-31T11:12:52;2.53;;;0.70;;
34405;SDS011;20658;45.630;8.886;2023-10-31T11:15:21;1.40;;;0.30;;
34405;SDS011;20658;45.630;8.886;2023-10-31T11:17:51;2.38;;;0.60;;
34405;SDS011;20658;45.630;8.886;2023-10-31T11:20:21;5.38;;;0.98;;
34405;SDS011;20658;45.630;8.886;2023-10-31T11:22:54;3.28;;;0.82;;
34405;SDS011;20658;45.630;8.886;2023-10-31T11:25:24;3.33;;;0.80;;
34405;SDS011;20658;45.630;8.886;2023-10-31T11:27:54;1.52;;;0.38;;
34405;SDS011;20658;45.630;8.886;2023-10-31T11:30:38;5.95;;;0.40;;
34405;SDS011;20658;45.630;8.886;2023-10-31T11:33:12;4.20;;;0.47;;
34405;SDS011;20658;45.630;8.886;2023-10-31T11:35:42;2.05;;;0.80;;
34405;SDS011;20658;45.630;8.886;2023-10-31T11:38:12;3.90;;;0.90;;
34405;SDS011;20658;45.630;8.886;2023-10-31T11:40:57;3.38;;;1.00;;
34405;SDS011;20658;45.630;8.886;2023-10-31T11:46:21;1.30;;;0.60;;
34405;SDS011;20658;45.630;8.886;2023-10-31T11:48:52;1.33;;;0.50;;
34405;SDS011;20658;45.630;8.886;2023-10-31T11:51:22;1.15;;;0.57;;
34405;SDS011;20658;45.630;8.886;2023-10-31T11:53:53;1.00;;;0.50;;
34405;SDS011;20658;45.630;8.886;2023-10-31T11:56:22;2.13;;;0.30;;
34405;SDS011;20658;45.630;8.886;2023-10-31T11:58:57;1.80;;;0.60;;
34405;SDS011;20658;45.630;8.886;2023-10-31T12:01:26;0.90;;;0.35;;
34405;SDS011;20658;45.630;8.886;2023-10-31T12:03:55;1.27;;;0.40;;
34405;SDS011;20658;45.630;8.886;2023-10-31T12:06:23;3.58;;;0.50;;
34405;SDS011;20658;45.630;8.886;2023-10-31T12:08:52;3.63;;;0.60;;
34405;SDS011;20658;45.630;8.886;2023-10-31T12:11:21;2.05;;;0.52;;
34405;SDS011;20658;45.630;8.886;2023-10-31T12:13:54;1.13;;;0.60;;
34405;SDS011;20658;45.630;8.886;2023-10-31T12:16:32;2.95;;;0.47;;
34405;SDS011;20658;45.630;8.886;2023-10-31T12:19:02;1.10;;;0.50;;
34405;SDS011;20658;45.630;8.886;2023-10-31T12:21:36;1.27;;;0.30;;
34405;SDS011;20658;45.630;8.886;2023-10-31T12:24:06;1.27;;;0.40;;
34405;SDS011;20658;45.630;8.886;2023-10-31T12:26:36;1.35;;;0.20;;
34405;SDS011;20658;45.630;8.886;2023-10-31T12:29:10;2.50;;;0.50;;
34405;SDS011;20658;45.630;8.886;2023-10-31T12:31:44;0.95;;;0.32;;
34405;SDS011;20658;45.630;8.886;2023-10-31T12:34:14;2.22;;;0.50;;
34405;SDS011;20658;45.630;8.886;2023-10-31T12:36:44;5.20;;;0.80;;
34405;SDS011;20658;45.630;8.886;2023-10-31T12:39:16;2.58;;;0.20;;
34405;SDS011;20658;45.630;8.886;2023-10-31T12:41:48;4.45;;;1.50;;
34405;SDS011;20658;45.630;8.886;2023-10-31T12:44:20;12.82;;;4.47;;
34405;SDS011;20658;45.630;8.886;2023-10-31T12:46:52;3.50;;;0.70;;
34405;SDS011;20658;45.630;8.886;2023-10-31T12:49:26;1.50;;;0.50;;
34405;SDS011;20658;45.630;8.886;2023-10-31T12:51:55;2.05;;;0.38;;
34405;SDS011;20658;45.630;8.886;2023-10-31T12:54:29;2.15;;;0.25;;
34405;SDS011;20658;45.630;8.886;2023-10-31T12:56:59;1.73;;;0.50;;
34405;SDS011;20658;45.630;8.886;2023-10-31T12:59:30;0.57;;;0.28;;
34405;SDS011;20658;45.630;8.886;2023-10-31T13:01:59;0.73;;;0.30;;
34405;SDS011;20658;45.630;8.886;2023-10-31T13:04:29;0.32;;;0.20;;
34405;SDS011;20658;45.630;8.886;2023-10-31T13:07:00;2.25;;;0.32;;
34405;SDS011;20658;45.630;8.886;2023-10-31T13:09:30;1.98;;;0.20;;
34405;SDS011;20658;45.630;8.886;2023-10-31T13:12:02;1.52;;;0.40;;
34405;SDS011;20658;45.630;8.886;2023-10-31T13:14:33;1.25;;;0.28;;
34405;SDS011;20658;45.630;8.886;2023-10-31T13:17:03;3.83;;;0.50;;
34405;SDS011;20658;45.630;8.886;2023-10-31T13:19:31;1.10;;;0.40;;
34405;SDS011;20658;45.630;8.886;2023-10-31T13:22:00;2.25;;;0.45;;
34405;SDS011;20658;45.630;8.886;2023-10-31T13:24:28;0.57;;;0.20;;
34405;SDS011;20658;45.630;8.886;2023-10-31T13:26:57;0.95;;;0.50;;
34405;SDS011;20658;45.630;8.886;2023-10-31T13:29:27;1.13;;;0.22;;
34405;SDS011;20658;45.630;8.886;2023-10-31T13:31:57;1.30;;;0.47;;
34405;SDS011;20658;45.630;8.886;2023-10-31T13:34:26;3.63;;;0.52;;
34405;SDS011;20658;45.630;8.886;2023-10-31T13:36:58;2.10;;;0.75;;
34405;SDS011;20658;45.630;8.886;2023-10-31T13:39:26;0.95;;;0.40;;
34405;SDS011;20658;45.630;8.886;2023-10-31T13:41:55;0.57;;;0.35;;
34405;SDS011;20658;45.630;8.886;2023-10-31T13:44:23;2.45;;;0.30;;
34405;SDS011;20658;45.630;8.886;2023-10-31T13:46:52;2.45;;;0.40;;
34405;SDS011;20658;45.630;8.886;2023-10-31T13:49:22;1.38;;;0.40;;
34405;SDS011;20658;45.630;8.886;2023-10-31T13:51:50;3.10;;;0.40;;
34405;SDS011;20658;45.630;8.886;2023-10-31T13:54:19;3.20;;;0.50;;
34405;SDS011;20658;45.630;8.886;2023-10-31T13:56:48;4.20;;;0.40;;
34405;SDS011;20658;45.630;8.886;2023-10-31T13:59:16;1.20;;;0.57;;
34405;SDS011;20658;45.630;8.886;2023-10-31T14:01:46;3.42;;;0.40;;
34405;SDS011;20658;45.630;8.886;2023-10-31T14:04:24;1.58;;;0.35;;
34405;SDS011;20658;45.630;8.886;2023-10-31T14:06:53;2.40;;;0.40;;
34405;SDS011;20658;45.630;8.886;2023-10-31T14:09:22;3.20;;;0.60;;
34405;SDS011;20658;45.630;8.886;2023-10-31T14:11:50;1.13;;;0.40;;
34405;SDS011;20658;45.630;8.886;2023-10-31T14:14:19;1.17;;;0.60;;
34405;SDS011;20658;45.630;8.886;2023-10-31T14:16:48;1.40;;;0.25;;
34405;SDS011;20658;45.630;8.886;2023-10-31T14:19:16;3.72;;;0.75;;
34405;SDS011;20658;45.630;8.886;2023-10-31T14:21:46;2.55;;;1.42;;
34405;SDS011;20658;45.630;8.886;2023-10-31T14:24:15;1.25;;;0.50;;
34405;SDS011;20658;45.630;8.886;2023-10-31T14:26:44;1.83;;;0.60;;
34405;SDS011;20658;45.630;8.886;2023-10-31T14:29:12;0.90;;;0.40;;
34405;SDS011;20658;45.630;8.886;2023-10-31T14:31:41;2.03;;;0.40;;
34405;SDS011;20658;45.630;8.886;2023-10-31T14:34:10;0.88;;;0.40;;
34405;SDS011;20658;45.630;8.886;2023-10-31T14:36:39;1.13;;;0.50;;
34405;SDS011;20658;45.630;8.886;2023-10-31T14:39:09;0.85;;;0.40;;
34405;SDS011;20658;45.630;8.886;2023-10-31T14:41:38;0.98;;;0.40;;
34405;SDS011;20658;45.630;8.886;2023-10-31T14:44:07;0.82;;;0.43;;
34405;SDS011;20658;45.630;8.886;2023-10-31T14:46:36;1.08;;;0.50;;
34405;SDS011;20658;45.630;8.886;2023-10-31T14:49:05;2.05;;;0.20;;
34405;SDS011;20658;45.630;8.886;2023-10-31T14:51:33;1.10;;;0.30;;
34405;SDS011;20658;45.630;8.886;2023-10-31T14:54:02;0.80;;;0.30;;
34405;SDS011;20658;45.630;8.886;2023-10-31T14:56:34;0.60;;;0.30;;
34405;SDS011;20658;45.630;8.886;2023-10-31T14:59:04;0.65;;;0.40;;
34405;SDS011;20658;45.630;8.886;2023-10-31T15:01:32;3.00;;;0.40;;
34405;SDS011;20658;45.630;8.886;2023-10-31T15:04:01;0.50;;;0.20;;
34405;SDS011;20658;45.630;8.886;2023-10-31T15:06:29;0.47;;;0.30;;
34405;SDS011;20658;45.630;8.886;2023-10-31T15:08:59;0.55;;;0.30;;